sensor_id;sensor_type;location;lat;lon;timestamp;P1;durP1;ratioP1;P2;durP2;ratioP2
65998;SDS011;52766;56.008;37.440;2022-10-14T00:01:06;18.10;;;9.35;;
65998;SDS011;52766;56.008;37.440;2022-10-14T00:03:33;16.60;;;7.90;;
65998;SDS011;52766;56.008;37.440;2022-10-14T00:06:04;14.05;;;7.88;;
65998;SDS011;52766;56.008;37.440;2022-10-14T00:08:32;15.63;;;7.07;;
65998;SDS011;52766;56.008;37.440;2022-10-14T00:11:06;17.95;;;7.72;;
65998;SDS011;52766;56.008;37.440;2022-10-14T00:13:37;14.85;;;7.07;;
65998;SDS011;52766;56.008;37.440;2022-10-14T00:16:03;16.52;;;8.57;;
65998;SDS011;52766;56.008;37.440;2022-10-14T00:18:30;14.57;;;6.82;;
65998;SDS011;52766;56.008;37.440;2022-10-14T00:20:56;14.80;;;6.72;;
65998;SDS011;52766;56.008;37.440;2022-10-14T00:23:24;11.75;;;4.30;;
65998;SDS011;52766;56.008;37.440;2022-10-14T00:25:50;19.70;;;8.40;;
65998;SDS011;52766;56.008;37.440;2022-10-14T00:28:17;18.02;;;7.43;;
65998;SDS011;52766;56.008;37.440;2022-10-14T00:30:56;17.90;;;9.00;;
65998;SDS011;52766;56.008;37.440;2022-10-14T00:33:24;15.55;;;8.02;;
65998;SDS011;52766;56.008;37.440;2022-10-14T00:36:02;15.73;;;7.43;;
65998;SDS011;52766;56.008;37.440;2022-10-14T00:38:32;16.42;;;7.60;;
65998;SDS011;52766;56.008;37.440;2022-10-14T00:40:59;12.13;;;6.10;;
65998;SDS011;52766;56.008;37.440;2022-10-14T00:43:25;16.45;;;7.53;;
65998;SDS011;52766;56.008;37.440;2022-10-14T00:45:52;14.13;;;5.90;;
65998;SDS011;52766;56.008;37.440;2022-10-14T00:48:19;13.95;;;6.63;;
65998;SDS011;52766;56.008;37.440;2022-10-14T00:50:51;11.15;;;6.03;;
65998;SDS011;52766;56.008;37.440;2022-10-14T00:53:18;17.05;;;7.72;;
65998;SDS011;52766;56.008;37.440;2022-10-14T00:55:44;16.33;;;7.82;;
65998;SDS011;52766;56.008;37.440;2022-10-14T00:58:10;14.63;;;7.13;;
65998;SDS011;52766;56.008;37.440;2022-10-14T01:00:38;13.95;;;6.72;;
65998;SDS011;52766;56.008;37.440;2022-10-14T01:03:08;15.40;;;7.13;;
65998;SDS011;52766;56.008;37.440;2022-10-14T01:05:38;13.20;;;6.43;;
65998;SDS011;52766;56.008;37.440;2022-10-14T01:08:52;12.85;;;7.28;;
65998;SDS011;52766;56.008;37.440;2022-10-14T01:16:52;12.20;;;6.28;;
65998;SDS011;52766;56.008;37.440;2022-10-14T01:22:22;13.45;;;6.97;;
65998;SDS011;52766;56.008;37.440;2022-10-14T01:35:40;12.80;;;6.10;;
65998;SDS011;52766;56.008;37.440;2022-10-14T01:41:20;10.57;;;5.30;;
65998;SDS011;52766;56.008;37.440;2022-10-14T01:43:48;13.27;;;6.20;;
65998;SDS011;52766;56.008;37.440;2022-10-14T01:46:15;14.63;;;7.35;;
65998;SDS011;52766;56.008;37.440;2022-10-14T01:48:44;14.43;;;6.88;;
65998;SDS011;52766;56.008;37.440;2022-10-14T01:51:15;10.93;;;6.28;;
65998;SDS011;52766;56.008;37.440;2022-10-14T01:53:48;12.75;;;6.40;;
65998;SDS011;52766;56.008;37.440;2022-10-14T01:56:26;13.13;;;6.63;;
65998;SDS011;52766;56.008;37.440;2022-10-14T01:58:56;16.73;;;7.95;;
65998;SDS011;52766;56.008;37.440;2022-10-14T02:01:23;15.95;;;6.90;;
65998;SDS011;52766;56.008;37.440;2022-10-14T02:03:49;15.85;;;7.80;;
65998;SDS011;52766;56.008;37.440;2022-10-14T02:06:17;12.07;;;6.53;;
65998;SDS011;52766;56.008;37.440;2022-10-14T02:08:57;15.52;;;6.93;;
65998;SDS011;52766;56.008;37.440;2022-10-14T02:11:30;16.90;;;7.82;;
65998;SDS011;52766;56.008;37.440;2022-10-14T02:16:36;17.63;;;8.27;;
65998;SDS011;52766;56.008;37.440;2022-10-14T02:19:09;15.32;;;7.85;;
65998;SDS011;52766;56.008;37.440;2022-10-14T02:22:03;14.50;;;7.15;;
65998;SDS011;52766;56.008;37.440;2022-10-14T02:24:51;19.83;;;6.97;;
65998;SDS011;52766;56.008;37.440;2022-10-14T02:27:20;15.85;;;8.10;;
65998;SDS011;52766;56.008;37.440;2022-10-14T02:29:48;15.07;;;7.28;;
65998;SDS011;52766;56.008;37.440;2022-10-14T02:32:18;13.57;;;7.28;;
65998;SDS011;52766;56.008;37.440;2022-10-14T02:34:45;18.13;;;7.55;;
65998;SDS011;52766;56.008;37.440;2022-10-14T02:37:13;16.75;;;7.57;;
65998;SDS011;52766;56.008;37.440;2022-10-14T02:39:42;16.55;;;8.70;;
65998;SDS011;52766;56.008;37.440;2022-10-14T02:42:10;18.40;;;8.20;;
65998;SDS011;52766;56.008;37.440;2022-10-14T02:44:36;20.05;;;7.75;;
65998;SDS011;52766;56.008;37.440;2022-10-14T02:47:02;14.75;;;8.13;;
65998;SDS011;52766;56.008;37.440;2022-10-14T02:49:29;16.80;;;8.10;;
65998;SDS011;52766;56.008;37.440;2022-10-14T02:51:55;16.77;;;7.55;;
65998;SDS011;52766;56.008;37.440;2022-10-14T02:54:21;14.70;;;7.85;;
65998;SDS011;52766;56.008;37.440;2022-10-14T02:56:47;20.15;;;8.48;;
65998;SDS011;52766;56.008;37.440;2022-10-14T02:59:13;18.48;;;7.93;;
65998;SDS011;52766;56.008;37.440;2022-10-14T03:01:39;21.35;;;8.68;;
65998;SDS011;52766;56.008;37.440;2022-10-14T03:04:07;18.88;;;7.60;;
65998;SDS011;52766;56.008;37.440;2022-10-14T03:06:34;14.02;;;7.00;;
65998;SDS011;52766;56.008;37.440;2022-10-14T03:09:00;19.05;;;7.82;;
65998;SDS011;52766;56.008;37.440;2022-10-14T03:11:26;17.20;;;8.27;;
65998;SDS011;52766;56.008;37.440;2022-10-14T03:13:59;15.98;;;8.18;;
65998;SDS011;52766;56.008;37.440;2022-10-14T03:16:25;18.27;;;8.98;;
65998;SDS011;52766;56.008;37.440;2022-10-14T03:18:51;17.38;;;8.25;;
65998;SDS011;52766;56.008;37.440;2022-10-14T03:21:27;21.50;;;8.45;;
65998;SDS011;52766;56.008;37.440;2022-10-14T03:23:53;15.43;;;7.70;;
65998;SDS011;52766;56.008;37.440;2022-10-14T03:26:28;16.10;;;8.18;;
65998;SDS011;52766;56.008;37.440;2022-10-14T03:28:56;17.73;;;7.63;;
65998;SDS011;52766;56.008;37.440;2022-10-14T03:31:31;15.82;;;8.55;;
65998;SDS011;52766;56.008;37.440;2022-10-14T03:34:33;19.98;;;8.43;;
65998;SDS011;52766;56.008;37.440;2022-10-14T03:37:04;16.77;;;7.45;;
65998;SDS011;52766;56.008;37.440;2022-10-14T03:39:32;18.55;;;8.10;;
65998;SDS011;52766;56.008;37.440;2022-10-14T03:42:03;16.88;;;8.45;;
65998;SDS011;52766;56.008;37.440;2022-10-14T03:44:41;15.18;;;7.25;;
65998;SDS011;52766;56.008;37.440;2022-10-14T03:47:14;23.38;;;9.05;;
65998;SDS011;52766;56.008;37.440;2022-10-14T03:49:43;21.05;;;8.77;;
65998;SDS011;52766;56.008;37.440;2022-10-14T03:52:18;21.42;;;7.88;;
65998;SDS011;52766;56.008;37.440;2022-10-14T03:54:51;14.68;;;7.20;;
65998;SDS011;52766;56.008;37.440;2022-10-14T03:57:19;15.68;;;7.60;;
65998;SDS011;52766;56.008;37.440;2022-10-14T03:59:51;16.77;;;7.88;;
65998;SDS011;52766;56.008;37.440;2022-10-14T04:02:19;16.83;;;7.25;;
65998;SDS011;52766;56.008;37.440;2022-10-14T04:04:46;14.13;;;6.82;;
65998;SDS011;52766;56.008;37.440;2022-10-14T04:07:15;16.48;;;7.22;;
65998;SDS011;52766;56.008;37.440;2022-10-14T04:09:48;17.30;;;7.20;;
65998;SDS011;52766;56.008;37.440;2022-10-14T04:12:15;15.98;;;7.38;;
65998;SDS011;52766;56.008;37.440;2022-10-14T04:15:06;13.15;;;5.88;;
65998;SDS011;52766;56.008;37.440;2022-10-14T04:17:44;15.75;;;8.05;;
65998;SDS011;52766;56.008;37.440;2022-10-14T04:20:13;17.10;;;7.38;;
65998;SDS011;52766;56.008;37.440;2022-10-14T04:22:46;14.77;;;7.20;;
65998;SDS011;52766;56.008;37.440;2022-10-14T04:25:15;19.55;;;8.77;;
65998;SDS011;52766;56.008;37.440;2022-10-14T04:27:41;18.42;;;7.78;;
65998;SDS011;52766;56.008;37.440;2022-10-14T04:30:08;18.23;;;7.93;;
65998;SDS011;52766;56.008;37.440;2022-10-14T04:32:50;22.65;;;8.45;;
65998;SDS011;52766;56.008;37.440;2022-10-14T04:35:21;17.27;;;8.15;;
65998;SDS011;52766;56.008;37.440;2022-10-14T04:37:54;15.18;;;7.78;;
65998;SDS011;52766;56.008;37.440;2022-10-14T04:40:22;16.38;;;9.02;;
65998;SDS011;52766;56.008;37.440;2022-10-14T04:42:55;23.02;;;11.15;;
65998;SDS011;52766;56.008;37.440;2022-10-14T04:45:33;32.88;;;13.88;;
65998;SDS011;52766;56.008;37.440;2022-10-14T04:48:01;28.75;;;12.98;;
65998;SDS011;52766;56.008;37.440;2022-10-14T04:50:27;30.65;;;13.82;;
65998;SDS011;52766;56.008;37.440;2022-10-14T04:53:12;42.28;;;18.65;;
65998;SDS011;52766;56.008;37.440;2022-10-14T04:55:47;53.47;;;22.58;;
65998;SDS011;52766;56.008;37.440;2022-10-14T04:58:14;39.22;;;17.25;;
65998;SDS011;52766;56.008;37.440;2022-10-14T05:00:42;32.85;;;13.63;;
65998;SDS011;52766;56.008;37.440;2022-10-14T05:03:29;29.35;;;14.25;;
65998;SDS011;52766;56.008;37.440;2022-10-14T05:05:57;30.17;;;14.40;;
65998;SDS011;52766;56.008;37.440;2022-10-14T05:08:23;28.02;;;12.20;;
65998;SDS011;52766;56.008;37.440;2022-10-14T05:10:55;18.33;;;8.52;;
65998;SDS011;52766;56.008;37.440;2022-10-14T05:13:58;21.58;;;9.80;;
65998;SDS011;52766;56.008;37.440;2022-10-14T05:16:28;19.10;;;8.25;;
65998;SDS011;52766;56.008;37.440;2022-10-14T05:18:54;17.08;;;8.75;;
65998;SDS011;52766;56.008;37.440;2022-10-14T05:21:26;22.75;;;9.77;;
65998;SDS011;52766;56.008;37.440;2022-10-14T05:24:03;19.58;;;8.68;;
65998;SDS011;52766;56.008;37.440;2022-10-14T05:26:32;20.17;;;7.78;;
65998;SDS011;52766;56.008;37.440;2022-10-14T05:29:03;18.88;;;7.38;;
65998;SDS011;52766;56.008;37.440;2022-10-14T05:31:30;24.90;;;8.50;;
65998;SDS011;52766;56.008;37.440;2022-10-14T05:34:04;24.08;;;11.25;;
65998;SDS011;52766;56.008;37.440;2022-10-14T05:36:35;37.65;;;12.88;;
65998;SDS011;52766;56.008;37.440;2022-10-14T05:39:06;19.80;;;7.50;;
65998;SDS011;52766;56.008;37.440;2022-10-14T05:41:34;34.33;;;11.45;;
65998;SDS011;52766;56.008;37.440;2022-10-14T05:44:01;29.75;;;10.60;;
65998;SDS011;52766;56.008;37.440;2022-10-14T05:46:27;25.88;;;10.75;;
65998;SDS011;52766;56.008;37.440;2022-10-14T05:48:55;32.83;;;12.65;;
65998;SDS011;52766;56.008;37.440;2022-10-14T05:51:22;24.08;;;12.70;;
65998;SDS011;52766;56.008;37.440;2022-10-14T05:54:01;30.73;;;13.15;;
65998;SDS011;52766;56.008;37.440;2022-10-14T05:56:37;29.42;;;12.00;;
65998;SDS011;52766;56.008;37.440;2022-10-14T05:59:03;28.27;;;13.35;;
65998;SDS011;52766;56.008;37.440;2022-10-14T06:01:30;25.70;;;13.60;;
65998;SDS011;52766;56.008;37.440;2022-10-14T06:04:01;26.17;;;11.90;;
65998;SDS011;52766;56.008;37.440;2022-10-14T06:06:27;27.67;;;12.90;;
65998;SDS011;52766;56.008;37.440;2022-10-14T06:13:17;24.33;;;12.05;;
65998;SDS011;52766;56.008;37.440;2022-10-14T06:16:22;26.75;;;13.48;;
65998;SDS011;52766;56.008;37.440;2022-10-14T06:21:42;20.98;;;12.10;;
65998;SDS011;52766;56.008;37.440;2022-10-14T06:24:46;28.50;;;11.00;;
65998;SDS011;52766;56.008;37.440;2022-10-14T06:27:22;29.83;;;12.93;;
65998;SDS011;52766;56.008;37.440;2022-10-14T06:30:15;23.08;;;10.43;;
65998;SDS011;52766;56.008;37.440;2022-10-14T06:33:17;19.70;;;10.23;;
65998;SDS011;52766;56.008;37.440;2022-10-14T06:35:51;18.55;;;9.85;;
65998;SDS011;52766;56.008;37.440;2022-10-14T06:38:18;23.65;;;12.32;;
65998;SDS011;52766;56.008;37.440;2022-10-14T06:44:20;21.25;;;10.30;;
65998;SDS011;52766;56.008;37.440;2022-10-14T06:46:49;38.25;;;11.00;;
65998;SDS011;52766;56.008;37.440;2022-10-14T06:49:15;24.40;;;10.20;;
65998;SDS011;52766;56.008;37.440;2022-10-14T06:51:41;19.40;;;8.20;;
65998;SDS011;52766;56.008;37.440;2022-10-14T06:54:27;20.52;;;8.98;;
65998;SDS011;52766;56.008;37.440;2022-10-14T06:56:54;15.05;;;7.38;;
65998;SDS011;52766;56.008;37.440;2022-10-14T06:59:22;18.85;;;8.80;;
65998;SDS011;52766;56.008;37.440;2022-10-14T07:01:51;9.70;;;5.72;;
65998;SDS011;52766;56.008;37.440;2022-10-14T07:04:18;17.27;;;8.40;;
65998;SDS011;52766;56.008;37.440;2022-10-14T07:06:45;13.98;;;7.53;;
65998;SDS011;52766;56.008;37.440;2022-10-14T07:09:11;11.82;;;5.38;;
65998;SDS011;52766;56.008;37.440;2022-10-14T07:11:43;15.18;;;6.45;;
65998;SDS011;52766;56.008;37.440;2022-10-14T07:14:16;11.73;;;6.53;;
65998;SDS011;52766;56.008;37.440;2022-10-14T07:16:56;12.10;;;6.68;;
65998;SDS011;52766;56.008;37.440;2022-10-14T07:19:25;15.40;;;7.07;;
65998;SDS011;52766;56.008;37.440;2022-10-14T07:21:51;12.70;;;6.95;;
65998;SDS011;52766;56.008;37.440;2022-10-14T07:24:17;14.50;;;6.30;;
65998;SDS011;52766;56.008;37.440;2022-10-14T07:26:44;13.15;;;6.15;;
65998;SDS011;52766;56.008;37.440;2022-10-14T07:30:18;12.93;;;6.03;;
65998;SDS011;52766;56.008;37.440;2022-10-14T07:32:44;17.08;;;6.60;;
65998;SDS011;52766;56.008;37.440;2022-10-14T07:35:13;11.48;;;5.95;;
65998;SDS011;52766;56.008;37.440;2022-10-14T07:37:40;17.30;;;7.00;;
65998;SDS011;52766;56.008;37.440;2022-10-14T07:40:10;13.50;;;5.82;;
65998;SDS011;52766;56.008;37.440;2022-10-14T07:42:37;20.10;;;7.25;;
65998;SDS011;52766;56.008;37.440;2022-10-14T07:45:04;12.73;;;6.53;;
65998;SDS011;52766;56.008;37.440;2022-10-14T07:47:31;15.23;;;5.88;;
65998;SDS011;52766;56.008;37.440;2022-10-14T07:49:59;16.92;;;4.95;;
65998;SDS011;52766;56.008;37.440;2022-10-14T07:52:28;9.48;;;5.05;;
65998;SDS011;52766;56.008;37.440;2022-10-14T07:54:55;13.02;;;5.40;;
65998;SDS011;52766;56.008;37.440;2022-10-14T07:57:29;8.48;;;4.95;;
65998;SDS011;52766;56.008;37.440;2022-10-14T08:00:05;8.48;;;3.83;;
65998;SDS011;52766;56.008;37.440;2022-10-14T08:02:38;11.85;;;5.43;;
65998;SDS011;52766;56.008;37.440;2022-10-14T08:05:04;11.07;;;5.53;;
65998;SDS011;52766;56.008;37.440;2022-10-14T08:07:32;13.98;;;6.00;;
65998;SDS011;52766;56.008;37.440;2022-10-14T08:09:59;10.82;;;6.05;;
65998;SDS011;52766;56.008;37.440;2022-10-14T08:12:26;12.45;;;6.53;;
65998;SDS011;52766;56.008;37.440;2022-10-14T08:14:54;8.85;;;4.63;;
65998;SDS011;52766;56.008;37.440;2022-10-14T08:17:21;12.07;;;4.50;;
65998;SDS011;52766;56.008;37.440;2022-10-14T08:19:48;7.82;;;3.72;;
65998;SDS011;52766;56.008;37.440;2022-10-14T08:22:17;6.57;;;4.07;;
65998;SDS011;52766;56.008;37.440;2022-10-14T08:24:43;7.63;;;4.00;;
65998;SDS011;52766;56.008;37.440;2022-10-14T08:27:09;5.57;;;2.78;;
65998;SDS011;52766;56.008;37.440;2022-10-14T08:29:46;9.50;;;3.30;;
65998;SDS011;52766;56.008;37.440;2022-10-14T08:32:12;8.52;;;3.25;;
65998;SDS011;52766;56.008;37.440;2022-10-14T08:34:39;6.93;;;3.08;;
65998;SDS011;52766;56.008;37.440;2022-10-14T08:37:05;6.60;;;3.65;;
65998;SDS011;52766;56.008;37.440;2022-10-14T08:39:33;5.72;;;2.50;;
65998;SDS011;52766;56.008;37.440;2022-10-14T08:42:42;6.60;;;3.38;;
65998;SDS011;52766;56.008;37.440;2022-10-14T08:45:05;8.13;;;2.80;;
65998;SDS011;52766;56.008;37.440;2022-10-14T08:47:36;5.35;;;2.80;;
65998;SDS011;52766;56.008;37.440;2022-10-14T08:52:42;4.82;;;2.40;;
65998;SDS011;52766;56.008;37.440;2022-10-14T08:55:26;6.55;;;2.80;;
65998;SDS011;52766;56.008;37.440;2022-10-14T09:00:40;4.22;;;2.40;;
65998;SDS011;52766;56.008;37.440;2022-10-14T09:03:14;5.50;;;2.63;;
65998;SDS011;52766;56.008;37.440;2022-10-14T09:05:43;7.97;;;2.75;;
65998;SDS011;52766;56.008;37.440;2022-10-14T09:08:15;8.25;;;3.00;;
65998;SDS011;52766;56.008;37.440;2022-10-14T09:10:42;6.63;;;2.72;;
65998;SDS011;52766;56.008;37.440;2022-10-14T09:15:54;2.95;;;1.25;;
65998;SDS011;52766;56.008;37.440;2022-10-14T09:18:39;6.97;;;1.65;;
65998;SDS011;52766;56.008;37.440;2022-10-14T09:21:19;4.90;;;1.83;;
65998;SDS011;52766;56.008;37.440;2022-10-14T09:24:08;2.92;;;1.50;;
65998;SDS011;52766;56.008;37.440;2022-10-14T09:26:48;3.85;;;1.67;;
65998;SDS011;52766;56.008;37.440;2022-10-14T09:32:29;3.35;;;1.42;;
65998;SDS011;52766;56.008;37.440;2022-10-14T09:34:57;5.05;;;2.17;;
65998;SDS011;52766;56.008;37.440;2022-10-14T09:37:28;6.15;;;2.55;;
65998;SDS011;52766;56.008;37.440;2022-10-14T09:39:57;4.95;;;2.20;;
65998;SDS011;52766;56.008;37.440;2022-10-14T09:45:18;7.07;;;2.58;;
65998;SDS011;52766;56.008;37.440;2022-10-14T09:48:01;5.10;;;1.70;;
65998;SDS011;52766;56.008;37.440;2022-10-14T09:53:01;4.45;;;2.20;;
65998;SDS011;52766;56.008;37.440;2022-10-14T09:59:16;5.43;;;1.67;;
65998;SDS011;52766;56.008;37.440;2022-10-14T10:02:00;4.57;;;1.90;;
65998;SDS011;52766;56.008;37.440;2022-10-14T10:04:43;5.72;;;1.63;;
65998;SDS011;52766;56.008;37.440;2022-10-14T10:07:24;2.97;;;1.20;;
65998;SDS011;52766;56.008;37.440;2022-10-14T10:09:59;1.95;;;1.15;;
65998;SDS011;52766;56.008;37.440;2022-10-14T10:12:29;2.78;;;1.73;;
65998;SDS011;52766;56.008;37.440;2022-10-14T10:15:01;9.77;;;2.72;;
65998;SDS011;52766;56.008;37.440;2022-10-14T10:17:32;4.85;;;2.20;;
65998;SDS011;52766;56.008;37.440;2022-10-14T10:22:44;4.40;;;1.75;;
65998;SDS011;52766;56.008;37.440;2022-10-14T10:25:17;4.38;;;2.00;;
65998;SDS011;52766;56.008;37.440;2022-10-14T10:27:51;5.78;;;1.70;;
65998;SDS011;52766;56.008;37.440;2022-10-14T10:30:33;6.43;;;2.25;;
65998;SDS011;52766;56.008;37.440;2022-10-14T10:38:36;3.13;;;1.70;;
65998;SDS011;52766;56.008;37.440;2022-10-14T10:51:53;3.78;;;1.45;;
65998;SDS011;52766;56.008;37.440;2022-10-14T10:54:28;3.58;;;1.88;;
65998;SDS011;52766;56.008;37.440;2022-10-14T10:57:23;3.28;;;1.73;;
65998;SDS011;52766;56.008;37.440;2022-10-14T11:00:21;4.25;;;1.30;;
65998;SDS011;52766;56.008;37.440;2022-10-14T11:02:59;2.22;;;1.23;;
65998;SDS011;52766;56.008;37.440;2022-10-14T11:23:23;6.45;;;2.42;;
65998;SDS011;52766;56.008;37.440;2022-10-14T11:29:06;2.85;;;1.48;;
65998;SDS011;52766;56.008;37.440;2022-10-14T11:32:00;3.42;;;1.17;;
65998;SDS011;52766;56.008;37.440;2022-10-14T11:37:52;1.60;;;0.70;;
65998;SDS011;52766;56.008;37.440;2022-10-14T11:40:26;1.83;;;0.82;;
65998;SDS011;52766;56.008;37.440;2022-10-14T11:49:52;7.28;;;2.75;;
65998;SDS011;52766;56.008;37.440;2022-10-14T11:52:37;13.43;;;3.20;;
65998;SDS011;52766;56.008;37.440;2022-10-14T11:55:34;8.77;;;3.30;;
65998;SDS011;52766;56.008;37.440;2022-10-14T11:58:05;10.82;;;4.10;;
65998;SDS011;52766;56.008;37.440;2022-10-14T12:03:58;9.10;;;4.07;;
65998;SDS011;52766;56.008;37.440;2022-10-14T12:06:54;6.78;;;2.97;;
65998;SDS011;52766;56.008;37.440;2022-10-14T12:09:40;9.18;;;3.15;;
65998;SDS011;52766;56.008;37.440;2022-10-14T12:12:14;9.80;;;3.75;;
65998;SDS011;52766;56.008;37.440;2022-10-14T12:15:25;8.98;;;3.30;;
65998;SDS011;52766;56.008;37.440;2022-10-14T12:17:43;8.27;;;3.20;;
65998;SDS011;52766;56.008;37.440;2022-10-14T12:23:24;7.10;;;3.50;;
65998;SDS011;52766;56.008;37.440;2022-10-14T12:28:49;9.52;;;4.45;;
65998;SDS011;52766;56.008;37.440;2022-10-14T12:39:32;10.45;;;5.10;;
65998;SDS011;52766;56.008;37.440;2022-10-14T12:42:32;7.47;;;4.07;;
65998;SDS011;52766;56.008;37.440;2022-10-14T12:44:58;9.02;;;4.30;;
65998;SDS011;52766;56.008;37.440;2022-10-14T12:47:33;12.55;;;5.72;;
65998;SDS011;52766;56.008;37.440;2022-10-14T12:50:22;8.15;;;3.58;;
65998;SDS011;52766;56.008;37.440;2022-10-14T12:53:14;9.00;;;4.50;;
65998;SDS011;52766;56.008;37.440;2022-10-14T12:55:48;10.32;;;4.40;;
65998;SDS011;52766;56.008;37.440;2022-10-14T12:58:26;14.20;;;5.30;;
65998;SDS011;52766;56.008;37.440;2022-10-14T13:01:18;10.77;;;5.55;;
65998;SDS011;52766;56.008;37.440;2022-10-14T13:03:59;14.30;;;6.38;;
65998;SDS011;52766;56.008;37.440;2022-10-14T13:11:42;12.05;;;6.00;;
65998;SDS011;52766;56.008;37.440;2022-10-14T13:20:47;12.93;;;6.15;;
65998;SDS011;52766;56.008;37.440;2022-10-14T13:31:43;9.52;;;5.50;;
65998;SDS011;52766;56.008;37.440;2022-10-14T13:37:55;12.18;;;6.18;;
65998;SDS011;52766;56.008;37.440;2022-10-14T13:40:16;13.02;;;5.10;;
65998;SDS011;52766;56.008;37.440;2022-10-14T13:45:41;9.95;;;5.88;;
65998;SDS011;52766;56.008;37.440;2022-10-14T13:48:28;14.88;;;5.30;;
65998;SDS011;52766;56.008;37.440;2022-10-14T13:54:20;12.90;;;5.35;;
65998;SDS011;52766;56.008;37.440;2022-10-14T13:59:27;10.07;;;5.30;;
65998;SDS011;52766;56.008;37.440;2022-10-14T14:01:55;11.23;;;5.47;;
65998;SDS011;52766;56.008;37.440;2022-10-14T14:04:30;14.43;;;6.47;;
65998;SDS011;52766;56.008;37.440;2022-10-14T14:06:57;18.48;;;6.47;;
65998;SDS011;52766;56.008;37.440;2022-10-14T14:09:25;11.25;;;6.57;;
65998;SDS011;52766;56.008;37.440;2022-10-14T14:11:56;13.60;;;6.40;;
65998;SDS011;52766;56.008;37.440;2022-10-14T14:17:01;11.70;;;5.63;;
65998;SDS011;52766;56.008;37.440;2022-10-14T14:19:32;14.07;;;5.95;;
65998;SDS011;52766;56.008;37.440;2022-10-14T14:24:46;13.45;;;6.43;;
65998;SDS011;52766;56.008;37.440;2022-10-14T14:27:14;10.93;;;5.63;;
65998;SDS011;52766;56.008;37.440;2022-10-14T14:29:42;11.40;;;4.90;;
65998;SDS011;52766;56.008;37.440;2022-10-14T14:32:16;10.35;;;4.85;;
65998;SDS011;52766;56.008;37.440;2022-10-14T14:34:48;10.10;;;5.65;;
65998;SDS011;52766;56.008;37.440;2022-10-14T14:37:25;10.32;;;5.20;;
65998;SDS011;52766;56.008;37.440;2022-10-14T14:39:59;15.65;;;5.45;;
65998;SDS011;52766;56.008;37.440;2022-10-14T14:42:36;11.30;;;5.32;;
65998;SDS011;52766;56.008;37.440;2022-10-14T14:45:05;10.55;;;5.63;;
65998;SDS011;52766;56.008;37.440;2022-10-14T14:47:48;14.00;;;6.90;;
65998;SDS011;52766;56.008;37.440;2022-10-14T14:50:39;13.85;;;6.45;;
65998;SDS011;52766;56.008;37.440;2022-10-14T14:53:11;17.98;;;6.90;;
65998;SDS011;52766;56.008;37.440;2022-10-14T14:58:25;19.35;;;7.88;;
65998;SDS011;52766;56.008;37.440;2022-10-14T15:00:54;21.98;;;9.98;;
65998;SDS011;52766;56.008;37.440;2022-10-14T15:03:22;24.77;;;10.00;;
65998;SDS011;52766;56.008;37.440;2022-10-14T15:05:50;20.08;;;10.73;;
65998;SDS011;52766;56.008;37.440;2022-10-14T15:08:23;17.95;;;9.98;;
65998;SDS011;52766;56.008;37.440;2022-10-14T15:10:54;23.75;;;10.45;;
65998;SDS011;52766;56.008;37.440;2022-10-14T15:14:03;19.55;;;10.02;;
65998;SDS011;52766;56.008;37.440;2022-10-14T15:16:31;18.77;;;9.20;;
65998;SDS011;52766;56.008;37.440;2022-10-14T15:21:46;21.20;;;9.80;;
65998;SDS011;52766;56.008;37.440;2022-10-14T15:24:20;18.90;;;8.25;;
65998;SDS011;52766;56.008;37.440;2022-10-14T15:26:54;19.65;;;8.32;;
65998;SDS011;52766;56.008;37.440;2022-10-14T15:29:20;19.80;;;8.68;;
65998;SDS011;52766;56.008;37.440;2022-10-14T15:34:42;20.35;;;9.05;;
65998;SDS011;52766;56.008;37.440;2022-10-14T15:37:11;22.80;;;7.80;;
65998;SDS011;52766;56.008;37.440;2022-10-14T15:39:37;21.02;;;8.75;;
65998;SDS011;52766;56.008;37.440;2022-10-14T15:42:08;20.50;;;7.82;;
65998;SDS011;52766;56.008;37.440;2022-10-14T15:44:35;17.38;;;7.80;;
65998;SDS011;52766;56.008;37.440;2022-10-14T15:47:01;14.48;;;7.53;;
65998;SDS011;52766;56.008;37.440;2022-10-14T15:50:29;14.43;;;7.20;;
65998;SDS011;52766;56.008;37.440;2022-10-14T15:52:59;18.83;;;7.15;;
65998;SDS011;52766;56.008;37.440;2022-10-14T15:55:38;18.38;;;7.63;;
65998;SDS011;52766;56.008;37.440;2022-10-14T16:03:57;16.38;;;7.55;;
65998;SDS011;52766;56.008;37.440;2022-10-14T16:06:31;13.52;;;6.57;;
65998;SDS011;52766;56.008;37.440;2022-10-14T16:08:58;14.77;;;7.20;;
65998;SDS011;52766;56.008;37.440;2022-10-14T16:11:29;14.38;;;6.57;;
65998;SDS011;52766;56.008;37.440;2022-10-14T16:14:27;17.13;;;7.35;;
65998;SDS011;52766;56.008;37.440;2022-10-14T16:16:56;16.25;;;7.00;;
65998;SDS011;52766;56.008;37.440;2022-10-14T16:19:27;13.10;;;6.45;;
65998;SDS011;52766;56.008;37.440;2022-10-14T16:21:53;11.10;;;6.10;;
65998;SDS011;52766;56.008;37.440;2022-10-14T16:24:24;17.48;;;7.05;;
65998;SDS011;52766;56.008;37.440;2022-10-14T16:26:50;16.02;;;8.82;;
65998;SDS011;52766;56.008;37.440;2022-10-14T16:29:17;15.00;;;7.28;;
65998;SDS011;52766;56.008;37.440;2022-10-14T16:31:44;15.80;;;8.38;;
65998;SDS011;52766;56.008;37.440;2022-10-14T16:34:20;23.58;;;10.98;;
65998;SDS011;52766;56.008;37.440;2022-10-14T16:36:47;20.60;;;10.23;;
65998;SDS011;52766;56.008;37.440;2022-10-14T16:39:14;22.17;;;9.68;;
65998;SDS011;52766;56.008;37.440;2022-10-14T16:41:41;23.65;;;10.90;;
65998;SDS011;52766;56.008;37.440;2022-10-14T16:44:08;22.02;;;9.82;;
65998;SDS011;52766;56.008;37.440;2022-10-14T16:46:52;22.50;;;10.30;;
65998;SDS011;52766;56.008;37.440;2022-10-14T16:49:38;22.08;;;9.60;;
65998;SDS011;52766;56.008;37.440;2022-10-14T16:52:07;24.52;;;10.02;;
65998;SDS011;52766;56.008;37.440;2022-10-14T16:54:33;19.42;;;9.57;;
65998;SDS011;52766;56.008;37.440;2022-10-14T16:57:00;16.50;;;8.38;;
65998;SDS011;52766;56.008;37.440;2022-10-14T16:59:29;19.25;;;9.30;;
65998;SDS011;52766;56.008;37.440;2022-10-14T17:01:58;19.63;;;9.85;;
65998;SDS011;52766;56.008;37.440;2022-10-14T17:04:28;18.33;;;9.25;;
65998;SDS011;52766;56.008;37.440;2022-10-14T17:06:56;20.88;;;9.77;;
65998;SDS011;52766;56.008;37.440;2022-10-14T17:09:23;21.85;;;8.63;;
65998;SDS011;52766;56.008;37.440;2022-10-14T17:11:52;19.90;;;8.88;;
65998;SDS011;52766;56.008;37.440;2022-10-14T17:14:22;22.05;;;9.73;;
65998;SDS011;52766;56.008;37.440;2022-10-14T17:16:58;19.10;;;9.38;;
65998;SDS011;52766;56.008;37.440;2022-10-14T17:19:33;23.15;;;10.82;;
65998;SDS011;52766;56.008;37.440;2022-10-14T17:22:09;24.52;;;10.20;;
65998;SDS011;52766;56.008;37.440;2022-10-14T17:27:11;24.00;;;10.00;;
65998;SDS011;52766;56.008;37.440;2022-10-14T17:29:38;19.77;;;9.75;;
65998;SDS011;52766;56.008;37.440;2022-10-14T17:32:09;23.25;;;9.68;;
65998;SDS011;52766;56.008;37.440;2022-10-14T17:34:39;23.50;;;10.13;;
65998;SDS011;52766;56.008;37.440;2022-10-14T17:37:09;18.75;;;9.77;;
65998;SDS011;52766;56.008;37.440;2022-10-14T17:43:54;16.35;;;8.82;;
65998;SDS011;52766;56.008;37.440;2022-10-14T17:46:24;19.77;;;9.88;;
65998;SDS011;52766;56.008;37.440;2022-10-14T17:48:52;17.58;;;8.88;;
65998;SDS011;52766;56.008;37.440;2022-10-14T17:51:25;20.48;;;9.65;;
65998;SDS011;52766;56.008;37.440;2022-10-14T17:54:11;19.15;;;10.02;;
65998;SDS011;52766;56.008;37.440;2022-10-14T18:00:00;21.98;;;10.48;;
65998;SDS011;52766;56.008;37.440;2022-10-14T18:02:44;18.75;;;10.13;;